sensor_id;sensor_type;location;lat;lon;timestamp;P1;durP1;ratioP1;P2;durP2;ratioP2
33690;SDS011;20026;50.058;18.428;2022-09-01T00:01:36;9.18;;;3.40;;
33690;SDS011;20026;50.058;18.428;2022-09-01T00:04:03;9.90;;;3.47;;
33690;SDS011;20026;50.058;18.428;2022-09-01T00:06:30;11.10;;;3.60;;
33690;SDS011;20026;50.058;18.428;2022-09-01T00:08:58;6.55;;;3.05;;
33690;SDS011;20026;50.058;18.428;2022-09-01T00:11:25;7.20;;;3.55;;
33690;SDS011;20026;50.058;18.428;2022-09-01T00:13:51;8.82;;;3.65;;
33690;SDS011;20026;50.058;18.428;2022-09-01T00:16:18;10.05;;;4.03;;
33690;SDS011;20026;50.058;18.428;2022-09-01T00:18:45;8.55;;;3.95;;
33690;SDS011;20026;50.058;18.428;2022-09-01T00:21:14;8.27;;;4.00;;
33690;SDS011;20026;50.058;18.428;2022-09-01T00:23:40;8.13;;;3.80;;
33690;SDS011;20026;50.058;18.428;2022-09-01T00:26:06;6.90;;;3.50;;
33690;SDS011;20026;50.058;18.428;2022-09-01T00:28:32;8.45;;;3.53;;
33690;SDS011;20026;50.058;18.428;2022-09-01T00:30:58;9.15;;;4.03;;
33690;SDS011;20026;50.058;18.428;2022-09-01T00:33:25;7.28;;;3.40;;
33690;SDS011;20026;50.058;18.428;2022-09-01T00:35:51;6.65;;;3.60;;
33690;SDS011;20026;50.058;18.428;2022-09-01T00:38:17;6.97;;;3.78;;
33690;SDS011;20026;50.058;18.428;2022-09-01T00:40:43;6.90;;;3.70;;
33690;SDS011;20026;50.058;18.428;2022-09-01T00:43:22;7.68;;;3.60;;
33690;SDS011;20026;50.058;18.428;2022-09-01T00:45:54;9.50;;;4.15;;
33690;SDS011;20026;50.058;18.428;2022-09-01T00:48:21;8.35;;;4.13;;
33690;SDS011;20026;50.058;18.428;2022-09-01T00:50:48;10.13;;;3.83;;
33690;SDS011;20026;50.058;18.428;2022-09-01T00:53:14;14.77;;;5.20;;
33690;SDS011;20026;50.058;18.428;2022-09-01T00:55:40;7.63;;;4.25;;
33690;SDS011;20026;50.058;18.428;2022-09-01T00:58:06;8.93;;;4.15;;
33690;SDS011;20026;50.058;18.428;2022-09-01T01:00:34;7.70;;;4.30;;
33690;SDS011;20026;50.058;18.428;2022-09-01T01:03:05;9.02;;;3.88;;
33690;SDS011;20026;50.058;18.428;2022-09-01T01:05:32;10.27;;;4.15;;
33690;SDS011;20026;50.058;18.428;2022-09-01T01:07:59;7.72;;;3.60;;
33690;SDS011;20026;50.058;18.428;2022-09-01T01:10:25;8.93;;;3.90;;
33690;SDS011;20026;50.058;18.428;2022-09-01T01:12:57;8.82;;;3.90;;
33690;SDS011;20026;50.058;18.428;2022-09-01T01:15:26;6.93;;;3.60;;
33690;SDS011;20026;50.058;18.428;2022-09-01T01:17:52;8.40;;;3.53;;
33690;SDS011;20026;50.058;18.428;2022-09-01T01:20:17;5.18;;;3.00;;
33690;SDS011;20026;50.058;18.428;2022-09-01T01:23:11;8.45;;;3.53;;
33690;SDS011;20026;50.058;18.428;2022-09-01T01:25:42;8.57;;;3.45;;
33690;SDS011;20026;50.058;18.428;2022-09-01T01:28:15;11.05;;;3.85;;
33690;SDS011;20026;50.058;18.428;2022-09-01T01:30:48;8.55;;;3.67;;
33690;SDS011;20026;50.058;18.428;2022-09-01T01:33:16;6.88;;;3.25;;
33690;SDS011;20026;50.058;18.428;2022-09-01T01:35:41;6.82;;;3.53;;
33690;SDS011;20026;50.058;18.428;2022-09-01T01:38:09;6.28;;;3.35;;
33690;SDS011;20026;50.058;18.428;2022-09-01T01:40:36;8.52;;;3.65;;
33690;SDS011;20026;50.058;18.428;2022-09-01T01:43:02;5.85;;;3.53;;
33690;SDS011;20026;50.058;18.428;2022-09-01T01:45:29;6.63;;;3.10;;
33690;SDS011;20026;50.058;18.428;2022-09-01T01:47:55;7.53;;;3.50;;
33690;SDS011;20026;50.058;18.428;2022-09-01T01:50:26;6.88;;;3.33;;
33690;SDS011;20026;50.058;18.428;2022-09-01T01:52:53;9.40;;;3.58;;
33690;SDS011;20026;50.058;18.428;2022-09-01T01:55:21;5.47;;;3.00;;
33690;SDS011;20026;50.058;18.428;2022-09-01T01:57:53;7.05;;;3.20;;
33690;SDS011;20026;50.058;18.428;2022-09-01T02:00:21;6.20;;;3.22;;
33690;SDS011;20026;50.058;18.428;2022-09-01T02:02:48;4.85;;;3.33;;
33690;SDS011;20026;50.058;18.428;2022-09-01T02:05:38;10.13;;;3.70;;
33690;SDS011;20026;50.058;18.428;2022-09-01T02:08:06;8.10;;;3.55;;
33690;SDS011;20026;50.058;18.428;2022-09-01T02:10:43;7.53;;;3.90;;
33690;SDS011;20026;50.058;18.428;2022-09-01T02:13:10;8.55;;;3.10;;
33690;SDS011;20026;50.058;18.428;2022-09-01T02:15:41;9.93;;;4.13;;
33690;SDS011;20026;50.058;18.428;2022-09-01T02:18:09;8.77;;;3.90;;
33690;SDS011;20026;50.058;18.428;2022-09-01T02:20:35;8.80;;;4.82;;
33690;SDS011;20026;50.058;18.428;2022-09-01T02:23:01;7.00;;;4.25;;
33690;SDS011;20026;50.058;18.428;2022-09-01T02:25:33;8.07;;;4.40;;
33690;SDS011;20026;50.058;18.428;2022-09-01T02:28:00;6.78;;;4.35;;
33690;SDS011;20026;50.058;18.428;2022-09-01T02:30:28;8.73;;;4.53;;
33690;SDS011;20026;50.058;18.428;2022-09-01T02:32:57;9.43;;;4.90;;
33690;SDS011;20026;50.058;18.428;2022-09-01T02:35:23;10.63;;;4.95;;
33690;SDS011;20026;50.058;18.428;2022-09-01T02:37:52;11.02;;;4.88;;
33690;SDS011;20026;50.058;18.428;2022-09-01T02:40:25;11.15;;;5.07;;
33690;SDS011;20026;50.058;18.428;2022-09-01T02:42:54;9.57;;;5.30;;
33690;SDS011;20026;50.058;18.428;2022-09-01T02:45:20;11.00;;;5.30;;
33690;SDS011;20026;50.058;18.428;2022-09-01T02:47:48;10.70;;;5.30;;
33690;SDS011;20026;50.058;18.428;2022-09-01T02:50:15;9.02;;;5.05;;
33690;SDS011;20026;50.058;18.428;2022-09-01T02:52:43;13.15;;;5.25;;
33690;SDS011;20026;50.058;18.428;2022-09-01T02:55:09;8.32;;;5.07;;
33690;SDS011;20026;50.058;18.428;2022-09-01T02:57:35;9.55;;;4.78;;
33690;SDS011;20026;50.058;18.428;2022-09-01T03:00:02;8.90;;;5.07;;
33690;SDS011;20026;50.058;18.428;2022-09-01T03:02:29;10.70;;;5.38;;
33690;SDS011;20026;50.058;18.428;2022-09-01T03:04:55;10.60;;;4.75;;
33690;SDS011;20026;50.058;18.428;2022-09-01T03:07:21;9.55;;;4.68;;
33690;SDS011;20026;50.058;18.428;2022-09-01T03:09:47;8.15;;;4.40;;
33690;SDS011;20026;50.058;18.428;2022-09-01T03:12:14;8.07;;;4.93;;
33690;SDS011;20026;50.058;18.428;2022-09-01T03:14:40;7.90;;;4.47;;
33690;SDS011;20026;50.058;18.428;2022-09-01T03:17:06;8.48;;;4.80;;
33690;SDS011;20026;50.058;18.428;2022-09-01T03:19:32;11.52;;;5.38;;
33690;SDS011;20026;50.058;18.428;2022-09-01T03:22:04;8.35;;;4.65;;
33690;SDS011;20026;50.058;18.428;2022-09-01T03:24:30;6.80;;;4.70;;
33690;SDS011;20026;50.058;18.428;2022-09-01T03:26:56;8.38;;;4.57;;
33690;SDS011;20026;50.058;18.428;2022-09-01T03:29:22;7.78;;;5.05;;
33690;SDS011;20026;50.058;18.428;2022-09-01T03:31:48;10.25;;;4.75;;
33690;SDS011;20026;50.058;18.428;2022-09-01T03:34:14;7.60;;;4.57;;
33690;SDS011;20026;50.058;18.428;2022-09-01T03:36:44;13.05;;;4.78;;
33690;SDS011;20026;50.058;18.428;2022-09-01T03:39:14;9.50;;;4.75;;
33690;SDS011;20026;50.058;18.428;2022-09-01T03:41:40;6.38;;;4.30;;
33690;SDS011;20026;50.058;18.428;2022-09-01T03:44:06;9.55;;;4.30;;
33690;SDS011;20026;50.058;18.428;2022-09-01T03:46:34;6.00;;;4.20;;
33690;SDS011;20026;50.058;18.428;2022-09-01T03:49:02;6.47;;;4.00;;
33690;SDS011;20026;50.058;18.428;2022-09-01T03:51:30;7.33;;;3.80;;
33690;SDS011;20026;50.058;18.428;2022-09-01T03:53:57;8.95;;;4.20;;
33690;SDS011;20026;50.058;18.428;2022-09-01T03:56:24;7.32;;;3.92;;
33690;SDS011;20026;50.058;18.428;2022-09-01T03:58:51;9.32;;;4.30;;
33690;SDS011;20026;50.058;18.428;2022-09-01T04:01:17;8.45;;;4.10;;
33690;SDS011;20026;50.058;18.428;2022-09-01T04:03:43;11.15;;;4.60;;
33690;SDS011;20026;50.058;18.428;2022-09-01T04:06:11;7.72;;;5.10;;
33690;SDS011;20026;50.058;18.428;2022-09-01T04:08:37;13.73;;;5.45;;
33690;SDS011;20026;50.058;18.428;2022-09-01T04:11:09;8.32;;;5.80;;
33690;SDS011;20026;50.058;18.428;2022-09-01T04:13:36;8.57;;;6.35;;
33690;SDS011;20026;50.058;18.428;2022-09-01T04:16:02;10.15;;;6.43;;
33690;SDS011;20026;50.058;18.428;2022-09-01T04:18:34;9.77;;;6.68;;
33690;SDS011;20026;50.058;18.428;2022-09-01T04:21:00;12.63;;;6.40;;
33690;SDS011;20026;50.058;18.428;2022-09-01T04:23:27;10.50;;;6.05;;
33690;SDS011;20026;50.058;18.428;2022-09-01T04:25:58;11.75;;;6.20;;
33690;SDS011;20026;50.058;18.428;2022-09-01T04:28:29;11.45;;;5.95;;
33690;SDS011;20026;50.058;18.428;2022-09-01T04:30:58;10.63;;;5.93;;
33690;SDS011;20026;50.058;18.428;2022-09-01T04:33:27;9.48;;;5.18;;
33690;SDS011;20026;50.058;18.428;2022-09-01T04:36:00;9.63;;;5.57;;
33690;SDS011;20026;50.058;18.428;2022-09-01T04:38:26;9.23;;;5.45;;
33690;SDS011;20026;50.058;18.428;2022-09-01T04:40:53;7.72;;;5.72;;
33690;SDS011;20026;50.058;18.428;2022-09-01T04:43:21;10.60;;;5.38;;
33690;SDS011;20026;50.058;18.428;2022-09-01T04:45:47;8.80;;;5.45;;
33690;SDS011;20026;50.058;18.428;2022-09-01T04:48:15;15.95;;;5.45;;
33690;SDS011;20026;50.058;18.428;2022-09-01T04:50:42;9.60;;;4.75;;
33690;SDS011;20026;50.058;18.428;2022-09-01T04:53:08;9.98;;;5.00;;
33690;SDS011;20026;50.058;18.428;2022-09-01T04:55:37;6.85;;;5.03;;
33690;SDS011;20026;50.058;18.428;2022-09-01T04:58:05;10.73;;;5.57;;
33690;SDS011;20026;50.058;18.428;2022-09-01T05:00:31;9.00;;;5.32;;
33690;SDS011;20026;50.058;18.428;2022-09-01T05:03:01;7.47;;;5.10;;
33690;SDS011;20026;50.058;18.428;2022-09-01T05:05:29;11.45;;;5.35;;
33690;SDS011;20026;50.058;18.428;2022-09-01T05:08:03;11.18;;;5.75;;
33690;SDS011;20026;50.058;18.428;2022-09-01T05:10:29;12.23;;;5.03;;
33690;SDS011;20026;50.058;18.428;2022-09-01T05:12:55;7.93;;;5.22;;
33690;SDS011;20026;50.058;18.428;2022-09-01T05:15:21;8.45;;;5.05;;
33690;SDS011;20026;50.058;18.428;2022-09-01T05:17:47;9.60;;;5.13;;
33690;SDS011;20026;50.058;18.428;2022-09-01T05:20:13;10.25;;;4.95;;
33690;SDS011;20026;50.058;18.428;2022-09-01T05:22:40;9.35;;;6.00;;
33690;SDS011;20026;50.058;18.428;2022-09-01T05:25:07;10.40;;;6.47;;
33690;SDS011;20026;50.058;18.428;2022-09-01T05:27:41;10.63;;;6.70;;
33690;SDS011;20026;50.058;18.428;2022-09-01T05:30:13;9.82;;;6.57;;
33690;SDS011;20026;50.058;18.428;2022-09-01T05:32:40;12.02;;;6.38;;
33690;SDS011;20026;50.058;18.428;2022-09-01T05:35:07;10.55;;;5.70;;
33690;SDS011;20026;50.058;18.428;2022-09-01T05:37:34;30.85;;;5.50;;
33690;SDS011;20026;50.058;18.428;2022-09-01T05:40:01;11.40;;;5.43;;
33690;SDS011;20026;50.058;18.428;2022-09-01T05:42:28;7.57;;;4.82;;
33690;SDS011;20026;50.058;18.428;2022-09-01T05:44:54;8.93;;;5.10;;
33690;SDS011;20026;50.058;18.428;2022-09-01T05:47:20;10.15;;;4.85;;
33690;SDS011;20026;50.058;18.428;2022-09-01T05:49:47;10.98;;;4.65;;
33690;SDS011;20026;50.058;18.428;2022-09-01T05:52:13;8.05;;;5.00;;
33690;SDS011;20026;50.058;18.428;2022-09-01T05:54:39;7.10;;;4.53;;
33690;SDS011;20026;50.058;18.428;2022-09-01T05:57:05;9.40;;;4.57;;
33690;SDS011;20026;50.058;18.428;2022-09-01T05:59:31;10.60;;;4.50;;
33690;SDS011;20026;50.058;18.428;2022-09-01T06:01:58;9.70;;;3.97;;
33690;SDS011;20026;50.058;18.428;2022-09-01T06:04:25;11.98;;;4.50;;
33690;SDS011;20026;50.058;18.428;2022-09-01T06:06:51;9.00;;;4.10;;
33690;SDS011;20026;50.058;18.428;2022-09-01T06:09:19;8.27;;;4.05;;
33690;SDS011;20026;50.058;18.428;2022-09-01T06:11:47;10.40;;;5.22;;
33690;SDS011;20026;50.058;18.428;2022-09-01T06:14:13;11.80;;;5.25;;
33690;SDS011;20026;50.058;18.428;2022-09-01T06:16:40;10.95;;;5.57;;
33690;SDS011;20026;50.058;18.428;2022-09-01T06:19:07;8.10;;;4.60;;
33690;SDS011;20026;50.058;18.428;2022-09-01T06:21:34;8.10;;;4.60;;
33690;SDS011;20026;50.058;18.428;2022-09-01T06:24:00;9.63;;;4.63;;
33690;SDS011;20026;50.058;18.428;2022-09-01T06:26:30;8.38;;;4.53;;
33690;SDS011;20026;50.058;18.428;2022-09-01T06:28:57;13.45;;;4.68;;
33690;SDS011;20026;50.058;18.428;2022-09-01T06:31:24;10.75;;;4.10;;
33690;SDS011;20026;50.058;18.428;2022-09-01T06:33:51;12.32;;;3.75;;
33690;SDS011;20026;50.058;18.428;2022-09-01T06:36:18;9.32;;;3.75;;
33690;SDS011;20026;50.058;18.428;2022-09-01T06:38:45;6.88;;;3.45;;
33690;SDS011;20026;50.058;18.428;2022-09-01T06:41:12;11.27;;;3.90;;
33690;SDS011;20026;50.058;18.428;2022-09-01T06:43:39;7.03;;;3.60;;
33690;SDS011;20026;50.058;18.428;2022-09-01T06:46:05;9.05;;;3.70;;
33690;SDS011;20026;50.058;18.428;2022-09-01T06:48:33;7.00;;;3.38;;
33690;SDS011;20026;50.058;18.428;2022-09-01T06:51:00;9.55;;;3.42;;
33690;SDS011;20026;50.058;18.428;2022-09-01T06:53:27;8.70;;;2.92;;
33690;SDS011;20026;50.058;18.428;2022-09-01T06:55:55;8.63;;;3.20;;
33690;SDS011;20026;50.058;18.428;2022-09-01T06:58:22;8.00;;;2.80;;
33690;SDS011;20026;50.058;18.428;2022-09-01T07:00:47;7.35;;;2.80;;
33690;SDS011;20026;50.058;18.428;2022-09-01T07:03:14;6.13;;;2.65;;
33690;SDS011;20026;50.058;18.428;2022-09-01T07:05:40;5.57;;;2.75;;
33690;SDS011;20026;50.058;18.428;2022-09-01T07:08:08;6.10;;;2.70;;
33690;SDS011;20026;50.058;18.428;2022-09-01T07:10:39;4.32;;;2.63;;
33690;SDS011;20026;50.058;18.428;2022-09-01T07:13:09;5.32;;;2.72;;
33690;SDS011;20026;50.058;18.428;2022-09-01T07:15:39;5.53;;;2.85;;
33690;SDS011;20026;50.058;18.428;2022-09-01T07:20:31;8.13;;;2.67;;
33690;SDS011;20026;50.058;18.428;2022-09-01T07:23:02;4.32;;;2.42;;
33690;SDS011;20026;50.058;18.428;2022-09-01T07:25:28;6.65;;;2.80;;
33690;SDS011;20026;50.058;18.428;2022-09-01T07:27:56;12.02;;;2.15;;
33690;SDS011;20026;50.058;18.428;2022-09-01T07:30:23;4.32;;;2.33;;
33690;SDS011;20026;50.058;18.428;2022-09-01T07:32:50;5.60;;;2.40;;
33690;SDS011;20026;50.058;18.428;2022-09-01T07:35:18;5.95;;;2.45;;
33690;SDS011;20026;50.058;18.428;2022-09-01T07:37:45;8.40;;;1.92;;
33690;SDS011;20026;50.058;18.428;2022-09-01T07:40:13;7.50;;;2.50;;
33690;SDS011;20026;50.058;18.428;2022-09-01T07:42:47;13.10;;;2.75;;
33690;SDS011;20026;50.058;18.428;2022-09-01T07:47:40;8.55;;;2.35;;
33690;SDS011;20026;50.058;18.428;2022-09-01T07:50:07;5.35;;;2.67;;
33690;SDS011;20026;50.058;18.428;2022-09-01T07:52:36;7.80;;;2.33;;
33690;SDS011;20026;50.058;18.428;2022-09-01T07:55:13;4.07;;;2.10;;
33690;SDS011;20026;50.058;18.428;2022-09-01T07:57:40;5.20;;;1.80;;
33690;SDS011;20026;50.058;18.428;2022-09-01T08:00:11;3.25;;;1.52;;
33690;SDS011;20026;50.058;18.428;2022-09-01T08:02:38;3.42;;;1.75;;
33690;SDS011;20026;50.058;18.428;2022-09-01T08:05:05;3.58;;;2.22;;
33690;SDS011;20026;50.058;18.428;2022-09-01T08:07:34;6.85;;;1.70;;
33690;SDS011;20026;50.058;18.428;2022-09-01T08:10:00;4.13;;;1.70;;
33690;SDS011;20026;50.058;18.428;2022-09-01T08:12:26;6.78;;;1.73;;
33690;SDS011;20026;50.058;18.428;2022-09-01T08:14:53;2.72;;;1.70;;
33690;SDS011;20026;50.058;18.428;2022-09-01T08:17:19;3.42;;;1.85;;
33690;SDS011;20026;50.058;18.428;2022-09-01T08:19:45;4.13;;;1.77;;
33690;SDS011;20026;50.058;18.428;2022-09-01T08:22:11;3.17;;;1.67;;
33690;SDS011;20026;50.058;18.428;2022-09-01T08:24:37;3.38;;;1.35;;
33690;SDS011;20026;50.058;18.428;2022-09-01T08:27:04;7.68;;;1.85;;
33690;SDS011;20026;50.058;18.428;2022-09-01T08:29:30;7.53;;;2.30;;
33690;SDS011;20026;50.058;18.428;2022-09-01T08:31:56;5.53;;;1.70;;
33690;SDS011;20026;50.058;18.428;2022-09-01T08:34:23;3.15;;;1.27;;
33690;SDS011;20026;50.058;18.428;2022-09-01T08:36:49;5.32;;;1.00;;
33690;SDS011;20026;50.058;18.428;2022-09-01T08:39:15;3.08;;;1.20;;
33690;SDS011;20026;50.058;18.428;2022-09-01T08:41:42;1.45;;;0.85;;
33690;SDS011;20026;50.058;18.428;2022-09-01T08:44:15;3.85;;;0.80;;
33690;SDS011;20026;50.058;18.428;2022-09-01T08:46:44;2.55;;;0.90;;
33690;SDS011;20026;50.058;18.428;2022-09-01T08:49:20;2.63;;;0.90;;
33690;SDS011;20026;50.058;18.428;2022-09-01T08:51:55;2.72;;;1.00;;
33690;SDS011;20026;50.058;18.428;2022-09-01T08:57:07;1.92;;;0.82;;
33690;SDS011;20026;50.058;18.428;2022-09-01T08:59:34;1.75;;;0.95;;
33690;SDS011;20026;50.058;18.428;2022-09-01T09:04:43;3.63;;;1.17;;
33690;SDS011;20026;50.058;18.428;2022-09-01T09:07:19;2.63;;;0.95;;
33690;SDS011;20026;50.058;18.428;2022-09-01T09:09:52;2.22;;;1.15;;
33690;SDS011;20026;50.058;18.428;2022-09-01T09:15:26;2.72;;;1.40;;
33690;SDS011;20026;50.058;18.428;2022-09-01T09:17:59;3.10;;;1.60;;
33690;SDS011;20026;50.058;18.428;2022-09-01T09:20:26;3.72;;;1.30;;
33690;SDS011;20026;50.058;18.428;2022-09-01T09:22:52;4.25;;;1.38;;
33690;SDS011;20026;50.058;18.428;2022-09-01T09:25:19;6.35;;;1.20;;
33690;SDS011;20026;50.058;18.428;2022-09-01T09:27:46;1.58;;;1.30;;
33690;SDS011;20026;50.058;18.428;2022-09-01T09:30:14;11.65;;;1.17;;
33690;SDS011;20026;50.058;18.428;2022-09-01T09:32:50;2.72;;;0.90;;
33690;SDS011;20026;50.058;18.428;2022-09-01T09:35:19;7.38;;;0.73;;
33690;SDS011;20026;50.058;18.428;2022-09-01T09:37:45;4.28;;;0.85;;
33690;SDS011;20026;50.058;18.428;2022-09-01T09:40:22;4.90;;;1.25;;
33690;SDS011;20026;50.058;18.428;2022-09-01T09:45:21;2.97;;;1.23;;
33690;SDS011;20026;50.058;18.428;2022-09-01T09:47:48;4.03;;;1.27;;
33690;SDS011;20026;50.058;18.428;2022-09-01T09:52:44;3.42;;;1.40;;
33690;SDS011;20026;50.058;18.428;2022-09-01T09:55:27;4.07;;;1.23;;
33690;SDS011;20026;50.058;18.428;2022-09-01T09:57:57;2.00;;;0.95;;
33690;SDS011;20026;50.058;18.428;2022-09-01T10:00:28;5.45;;;1.85;;
33690;SDS011;20026;50.058;18.428;2022-09-01T10:02:56;3.35;;;1.40;;
33690;SDS011;20026;50.058;18.428;2022-09-01T10:05:24;2.03;;;1.40;;
33690;SDS011;20026;50.058;18.428;2022-09-01T10:07:50;3.38;;;1.30;;
33690;SDS011;20026;50.058;18.428;2022-09-01T10:15:38;2.38;;;1.10;;
33690;SDS011;20026;50.058;18.428;2022-09-01T10:18:06;5.25;;;1.40;;
33690;SDS011;20026;50.058;18.428;2022-09-01T10:23:00;3.92;;;1.33;;
33690;SDS011;20026;50.058;18.428;2022-09-01T10:25:27;9.95;;;1.58;;
33690;SDS011;20026;50.058;18.428;2022-09-01T10:27:55;5.20;;;1.30;;
33690;SDS011;20026;50.058;18.428;2022-09-01T10:30:22;3.88;;;1.08;;
33690;SDS011;20026;50.058;18.428;2022-09-01T10:32:52;1.65;;;0.80;;
33690;SDS011;20026;50.058;18.428;2022-09-01T10:35:23;2.60;;;1.50;;
33690;SDS011;20026;50.058;18.428;2022-09-01T10:37:50;2.67;;;1.33;;
33690;SDS011;20026;50.058;18.428;2022-09-01T10:40:33;4.30;;;1.90;;
33690;SDS011;20026;50.058;18.428;2022-09-01T10:45:46;2.55;;;1.10;;
33690;SDS011;20026;50.058;18.428;2022-09-01T10:50:50;2.70;;;0.63;;
33690;SDS011;20026;50.058;18.428;2022-09-01T11:01:13;2.47;;;0.80;;
33690;SDS011;20026;50.058;18.428;2022-09-01T11:06:31;3.25;;;1.10;;
33690;SDS011;20026;50.058;18.428;2022-09-01T11:09:00;1.65;;;0.90;;
33690;SDS011;20026;50.058;18.428;2022-09-01T11:13:53;2.95;;;0.80;;
33690;SDS011;20026;50.058;18.428;2022-09-01T11:16:24;2.90;;;0.80;;
33690;SDS011;20026;50.058;18.428;2022-09-01T11:18:51;1.65;;;0.95;;
33690;SDS011;20026;50.058;18.428;2022-09-01T11:21:29;4.20;;;0.90;;
33690;SDS011;20026;50.058;18.428;2022-09-01T11:26:45;1.30;;;0.90;;
33690;SDS011;20026;50.058;18.428;2022-09-01T11:31:56;3.72;;;1.05;;
33690;SDS011;20026;50.058;18.428;2022-09-01T11:34:23;1.60;;;0.70;;
33690;SDS011;20026;50.058;18.428;2022-09-01T11:36:52;2.08;;;0.90;;
33690;SDS011;20026;50.058;18.428;2022-09-01T11:47:02;3.23;;;1.00;;
33690;SDS011;20026;50.058;18.428;2022-09-01T11:49:30;6.30;;;0.80;;
33690;SDS011;20026;50.058;18.428;2022-09-01T11:51:57;3.08;;;1.30;;
33690;SDS011;20026;50.058;18.428;2022-09-01T11:54:24;3.60;;;0.98;;
33690;SDS011;20026;50.058;18.428;2022-09-01T11:56:51;3.28;;;1.20;;
33690;SDS011;20026;50.058;18.428;2022-09-01T11:59:30;3.30;;;0.90;;
33690;SDS011;20026;50.058;18.428;2022-09-01T12:01:56;2.13;;;0.95;;
33690;SDS011;20026;50.058;18.428;2022-09-01T12:04:24;2.97;;;1.45;;
33690;SDS011;20026;50.058;18.428;2022-09-01T12:06:53;2.67;;;0.70;;
33690;SDS011;20026;50.058;18.428;2022-09-01T12:09:20;2.00;;;0.80;;
33690;SDS011;20026;50.058;18.428;2022-09-01T12:11:46;2.90;;;1.00;;
33690;SDS011;20026;50.058;18.428;2022-09-01T12:14:19;1.13;;;0.65;;
33690;SDS011;20026;50.058;18.428;2022-09-01T12:16:57;2.05;;;0.60;;
33690;SDS011;20026;50.058;18.428;2022-09-01T12:19:25;2.67;;;1.00;;
33690;SDS011;20026;50.058;18.428;2022-09-01T12:21:55;2.90;;;1.05;;
33690;SDS011;20026;50.058;18.428;2022-09-01T12:24:23;1.25;;;0.70;;
33690;SDS011;20026;50.058;18.428;2022-09-01T12:26:50;2.08;;;0.88;;
33690;SDS011;20026;50.058;18.428;2022-09-01T12:29:25;4.38;;;0.88;;
33690;SDS011;20026;50.058;18.428;2022-09-01T12:31:51;1.88;;;0.47;;
33690;SDS011;20026;50.058;18.428;2022-09-01T12:39:42;2.45;;;0.68;;
33690;SDS011;20026;50.058;18.428;2022-09-01T12:44:51;1.00;;;0.73;;
33690;SDS011;20026;50.058;18.428;2022-09-01T12:50:03;4.47;;;0.70;;
33690;SDS011;20026;50.058;18.428;2022-09-01T12:52:30;2.78;;;0.80;;
33690;SDS011;20026;50.058;18.428;2022-09-01T12:57:27;1.77;;;1.33;;
33690;SDS011;20026;50.058;18.428;2022-09-01T13:02:40;3.00;;;1.80;;
33690;SDS011;20026;50.058;18.428;2022-09-01T13:07:53;6.65;;;3.38;;
33690;SDS011;20026;50.058;18.428;2022-09-01T13:10:19;1.58;;;0.65;;
33690;SDS011;20026;50.058;18.428;2022-09-01T13:12:46;5.10;;;0.77;;
33690;SDS011;20026;50.058;18.428;2022-09-01T13:15:12;3.42;;;0.80;;
33690;SDS011;20026;50.058;18.428;2022-09-01T13:17:38;1.52;;;0.60;;
33690;SDS011;20026;50.058;18.428;2022-09-01T13:20:05;1.80;;;0.55;;
33690;SDS011;20026;50.058;18.428;2022-09-01T13:22:32;1.25;;;0.70;;
33690;SDS011;20026;50.058;18.428;2022-09-01T13:24:59;1.25;;;0.40;;
33690;SDS011;20026;50.058;18.428;2022-09-01T13:27:25;0.93;;;0.60;;
33690;SDS011;20026;50.058;18.428;2022-09-01T13:29:51;3.65;;;0.95;;
33690;SDS011;20026;50.058;18.428;2022-09-01T13:32:17;1.48;;;0.52;;
33690;SDS011;20026;50.058;18.428;2022-09-01T13:34:43;3.17;;;0.68;;
33690;SDS011;20026;50.058;18.428;2022-09-01T13:37:09;1.77;;;0.45;;
33690;SDS011;20026;50.058;18.428;2022-09-01T13:39:35;4.05;;;0.60;;
33690;SDS011;20026;50.058;18.428;2022-09-01T13:42:01;1.00;;;0.50;;
33690;SDS011;20026;50.058;18.428;2022-09-01T13:44:27;1.23;;;0.70;;
33690;SDS011;20026;50.058;18.428;2022-09-01T13:46:53;1.30;;;0.50;;
33690;SDS011;20026;50.058;18.428;2022-09-01T13:49:19;2.10;;;1.08;;
33690;SDS011;20026;50.058;18.428;2022-09-01T13:51:51;2.92;;;0.60;;
33690;SDS011;20026;50.058;18.428;2022-09-01T13:54:18;1.95;;;0.63;;
33690;SDS011;20026;50.058;18.428;2022-09-01T13:56:43;1.95;;;0.50;;
33690;SDS011;20026;50.058;18.428;2022-09-01T13:59:09;3.35;;;0.70;;
33690;SDS011;20026;50.058;18.428;2022-09-01T14:01:35;1.98;;;0.55;;
33690;SDS011;20026;50.058;18.428;2022-09-01T14:04:02;1.15;;;0.68;;
33690;SDS011;20026;50.058;18.428;2022-09-01T14:06:30;1.90;;;0.77;;
33690;SDS011;20026;50.058;18.428;2022-09-01T14:08:56;4.03;;;0.98;;
33690;SDS011;20026;50.058;18.428;2022-09-01T14:11:23;2.13;;;0.50;;
33690;SDS011;20026;50.058;18.428;2022-09-01T14:13:50;1.42;;;0.70;;
33690;SDS011;20026;50.058;18.428;2022-09-01T14:16:16;1.88;;;0.60;;
33690;SDS011;20026;50.058;18.428;2022-09-01T14:18:42;2.13;;;0.68;;
33690;SDS011;20026;50.058;18.428;2022-09-01T14:21:09;1.27;;;0.70;;
33690;SDS011;20026;50.058;18.428;2022-09-01T14:23:36;3.95;;;1.00;;
33690;SDS011;20026;50.058;18.428;2022-09-01T14:26:06;3.58;;;0.82;;
33690;SDS011;20026;50.058;18.428;2022-09-01T14:28:32;1.75;;;1.00;;
33690;SDS011;20026;50.058;18.428;2022-09-01T14:30:58;1.13;;;0.50;;
33690;SDS011;20026;50.058;18.428;2022-09-01T14:33:26;2.15;;;0.77;;
33690;SDS011;20026;50.058;18.428;2022-09-01T14:35:52;2.50;;;0.68;;
33690;SDS011;20026;50.058;18.428;2022-09-01T14:38:18;1.88;;;0.82;;
33690;SDS011;20026;50.058;18.428;2022-09-01T14:40:46;1.80;;;1.20;;
33690;SDS011;20026;50.058;18.428;2022-09-01T14:43:12;2.20;;;0.80;;
33690;SDS011;20026;50.058;18.428;2022-09-01T14:45:39;2.72;;;0.60;;
33690;SDS011;20026;50.058;18.428;2022-09-01T14:48:08;2.53;;;0.80;;
33690;SDS011;20026;50.058;18.428;2022-09-01T14:50:38;2.90;;;0.80;;
33690;SDS011;20026;50.058;18.428;2022-09-01T14:53:04;4.60;;;0.90;;
33690;SDS011;20026;50.058;18.428;2022-09-01T14:55:30;3.33;;;0.95;;
33690;SDS011;20026;50.058;18.428;2022-09-01T14:57:57;1.73;;;1.63;;
33690;SDS011;20026;50.058;18.428;2022-09-01T15:00:24;1.33;;;0.80;;
33690;SDS011;20026;50.058;18.428;2022-09-01T15:02:50;3.88;;;1.63;;
33690;SDS011;20026;50.058;18.428;2022-09-01T15:05:16;3.05;;;1.85;;
33690;SDS011;20026;50.058;18.428;2022-09-01T15:07:43;6.28;;;3.28;;
33690;SDS011;20026;50.058;18.428;2022-09-01T15:10:10;0.75;;;0.55;;
33690;SDS011;20026;50.058;18.428;2022-09-01T15:12:36;5.13;;;2.10;;
33690;SDS011;20026;50.058;18.428;2022-09-01T15:15:04;1.85;;;0.80;;
33690;SDS011;20026;50.058;18.428;2022-09-01T15:17:30;2.17;;;0.63;;
33690;SDS011;20026;50.058;18.428;2022-09-01T15:19:56;3.58;;;0.52;;
33690;SDS011;20026;50.058;18.428;2022-09-01T15:22:42;2.72;;;0.88;;
33690;SDS011;20026;50.058;18.428;2022-09-01T15:25:08;3.22;;;1.00;;
33690;SDS011;20026;50.058;18.428;2022-09-01T15:27:34;6.75;;;2.00;;
33690;SDS011;20026;50.058;18.428;2022-09-01T15:30:00;1.98;;;1.05;;
33690;SDS011;20026;50.058;18.428;2022-09-01T15:32:26;3.47;;;0.55;;
33690;SDS011;20026;50.058;18.428;2022-09-01T15:34:52;1.42;;;0.60;;
33690;SDS011;20026;50.058;18.428;2022-09-01T15:37:18;1.17;;;0.47;;
33690;SDS011;20026;50.058;18.428;2022-09-01T15:39:44;1.40;;;0.80;;
33690;SDS011;20026;50.058;18.428;2022-09-01T15:42:10;2.70;;;1.48;;
33690;SDS011;20026;50.058;18.428;2022-09-01T15:44:36;1.20;;;1.08;;
33690;SDS011;20026;50.058;18.428;2022-09-01T15:47:02;5.05;;;2.53;;
33690;SDS011;20026;50.058;18.428;2022-09-01T15:49:28;3.30;;;1.00;;
33690;SDS011;20026;50.058;18.428;2022-09-01T15:51:54;2.97;;;0.52;;
33690;SDS011;20026;50.058;18.428;2022-09-01T15:54:21;1.10;;;0.63;;